This is the latest recevied weather packets stored in our database for station/object EA7AVH-10. If no packets are shown the sender has not sent any weather packets the latest 10 day(s).
| Time | Temp. | Humidity | Pressure | Rain* | Wind** | Luminosity | Snow |
|---|---|---|---|---|---|---|---|
| 1777470433 | 22.78° C | 55% | 918.1 hPa | - | - | - | - |
| 1777469533 | 23.89° C | 53% | 918.4 hPa | - | - | - | - |
| 1777468632 | 23.33° C | 53% | 918.5 hPa | - | - | - | - |
| 1777467731 | 23.89° C | 52% | 918.3 hPa | - | - | - | - |
| 1777466830 | 23.33° C | 54% | 918.4 hPa | - | - | - | - |
| 1777465929 | 24.44° C | 52% | 918.4 hPa | - | - | - | - |
| 1777465028 | 24.44° C | 51% | 918.5 hPa | - | - | - | - |
| 1777464127 | 23.89° C | 53% | 918.6 hPa | - | - | - | - |
| 1777463226 | 25° C | 51% | 918.9 hPa | - | - | - | - |
| 1777462325 | 23.89° C | 52% | 919 hPa | - | - | - | - |
| 1777461425 | 25° C | 51% | 919 hPa | - | - | - | - |
| 1777460543 | 23.89° C | 53% | 919.1 hPa | - | - | - | - |
| 1777459642 | 24.44° C | 52% | 919.2 hPa | - | - | - | - |
| 1777458741 | 22.78° C | 56% | 919.2 hPa | - | - | - | - |
| 1777457840 | 22.78° C | 54% | 919.4 hPa | - | - | - | - |
| 1777456939 | 23.89° C | 54% | 919.4 hPa | - | - | - | - |
| 1777456039 | 23.89° C | 52% | 919.4 hPa | - | - | - | - |
| 1777455138 | 23.33° C | 52% | 919.3 hPa | - | - | - | - |
| 1777454237 | 23.89° C | 52% | 919.4 hPa | - | - | - | - |
| 1777453336 | 25° C | 49% | 919.3 hPa | - | - | - | - |
| 1777452435 | 26.11° C | 49% | 919.4 hPa | - | - | - | - |
| 1777451534 | 25.56° C | 50% | 919.2 hPa | - | - | - | - |
| 1777450634 | 23.89° C | 52% | 919.2 hPa | - | - | - | - |
| 1777449733 | 24.44° C | 52% | 919.4 hPa | - | - | - | - |
| 1777448832 | 25° C | 55% | 919.3 hPa | - | - | - | - |
* Rain since midnight (hover to see other rain measurements)
** Current wind speed in m/s (hover to see current wind gust speed)